sensor_id;sensor_type;location;lat;lon;timestamp;pressure;altitude;pressure_sealevel;temperature;humidity
57791;BME280;43621;51.798;21.588;2023-02-23T00:03:34;100373.39;;;-0.52;57.42
57791;BME280;43621;51.798;21.588;2023-02-23T00:07:36;100371.27;;;-0.51;57.61
57791;BME280;43621;51.798;21.588;2023-02-23T00:11:38;100368.76;;;-0.52;57.73
57791;BME280;43621;51.798;21.588;2023-02-23T00:15:40;100369.75;;;-0.51;57.88
57791;BME280;43621;51.798;21.588;2023-02-23T00:19:42;100365.32;;;-0.48;58.42
57791;BME280;43621;51.798;21.588;2023-02-23T00:27:50;100354.27;;;-0.42;58.62
57791;BME280;43621;51.798;21.588;2023-02-23T00:31:53;100355.95;;;-0.37;58.75
57791;BME280;43621;51.798;21.588;2023-02-23T00:36:03;100361.15;;;-0.30;58.94
57791;BME280;43621;51.798;21.588;2023-02-23T00:40:06;100361.93;;;-0.19;59.58
57791;BME280;43621;51.798;21.588;2023-02-23T00:44:14;100355.20;;;-0.18;60.32
57791;BME280;43621;51.798;21.588;2023-02-23T00:48:15;100355.09;;;-0.24;60.69
57791;BME280;43621;51.798;21.588;2023-02-23T00:52:17;100348.99;;;-0.34;61.20
57791;BME280;43621;51.798;21.588;2023-02-23T00:56:20;100347.38;;;-0.49;62.48
57791;BME280;43621;51.798;21.588;2023-02-23T01:00:23;100347.13;;;-0.64;62.20
57791;BME280;43621;51.798;21.588;2023-02-23T01:04:29;100346.80;;;-0.73;62.59
57791;BME280;43621;51.798;21.588;2023-02-23T01:08:32;100346.35;;;-0.84;64.06
57791;BME280;43621;51.798;21.588;2023-02-23T01:12:34;100347.42;;;-0.90;63.77
57791;BME280;43621;51.798;21.588;2023-02-23T01:16:37;100347.42;;;-0.89;64.18
57791;BME280;43621;51.798;21.588;2023-02-23T01:20:39;100338.51;;;-0.89;64.82
57791;BME280;43621;51.798;21.588;2023-02-23T01:24:44;100338.17;;;-0.94;65.01
57791;BME280;43621;51.798;21.588;2023-02-23T01:29:15;100338.86;;;-0.99;64.49
57791;BME280;43621;51.798;21.588;2023-02-23T01:33:15;100337.85;;;-0.99;64.63
57791;BME280;43621;51.798;21.588;2023-02-23T01:37:17;100337.63;;;-0.93;65.02
57791;BME280;43621;51.798;21.588;2023-02-23T01:41:19;100337.85;;;-0.86;65.21
57791;BME280;43621;51.798;21.588;2023-02-23T01:45:34;100336.67;;;-0.77;64.95
57791;BME280;43621;51.798;21.588;2023-02-23T01:49:37;100333.68;;;-0.71;65.08
57791;BME280;43621;51.798;21.588;2023-02-23T01:53:43;100320.46;;;-0.71;65.08
57791;BME280;43621;51.798;21.588;2023-02-23T01:57:52;100317.48;;;-0.69;65.47
57791;BME280;43621;51.798;21.588;2023-02-23T02:01:55;100313.40;;;-0.70;65.68
57791;BME280;43621;51.798;21.588;2023-02-23T02:05:59;100310.70;;;-0.75;66.21
57791;BME280;43621;51.798;21.588;2023-02-23T02:10:03;100308.20;;;-0.81;66.37
57791;BME280;43621;51.798;21.588;2023-02-23T02:14:31;100311.02;;;-0.87;66.30
57791;BME280;43621;51.798;21.588;2023-02-23T02:27:09;100302.27;;;-0.78;66.77
57791;BME280;43621;51.798;21.588;2023-02-23T02:40:31;100301.83;;;-0.84;67.12
57791;BME280;43621;51.798;21.588;2023-02-23T02:49:28;100302.11;;;-0.96;67.24
57791;BME280;43621;51.798;21.588;2023-02-23T02:53:42;100301.58;;;-1.05;67.24
57791;BME280;43621;51.798;21.588;2023-02-23T02:57:46;100303.66;;;-1.10;67.77
57791;BME280;43621;51.798;21.588;2023-02-23T03:01:48;100309.68;;;-1.15;67.59
57791;BME280;43621;51.798;21.588;2023-02-23T03:06:09;100311.31;;;-1.22;67.59
57791;BME280;43621;51.798;21.588;2023-02-23T03:10:39;100310.86;;;-1.28;68.05
57791;BME280;43621;51.798;21.588;2023-02-23T03:29:26;100309.43;;;-1.32;67.71
57791;BME280;43621;51.798;21.588;2023-02-23T03:38:28;100312.96;;;-1.29;67.84
57791;BME280;43621;51.798;21.588;2023-02-23T03:42:54;100309.95;;;-1.22;67.81
57791;BME280;43621;51.798;21.588;2023-02-23T03:47:18;100310.44;;;-1.17;67.65
57791;BME280;43621;51.798;21.588;2023-02-23T03:51:46;100307.11;;;-1.15;67.72
57791;BME280;43621;51.798;21.588;2023-02-23T03:56:08;100306.25;;;-1.10;67.58
57791;BME280;43621;51.798;21.588;2023-02-23T04:00:33;100308.23;;;-1.04;67.51
57791;BME280;43621;51.798;21.588;2023-02-23T04:04:58;100307.10;;;-1.01;67.53
57791;BME280;43621;51.798;21.588;2023-02-23T04:09:20;100310.33;;;-1.01;67.38
57791;BME280;43621;51.798;21.588;2023-02-23T04:13:43;100311.45;;;-0.99;67.15
57791;BME280;43621;51.798;21.588;2023-02-23T04:17:46;100312.23;;;-0.92;67.07
57791;BME280;43621;51.798;21.588;2023-02-23T04:21:48;100315.55;;;-0.85;67.07
57791;BME280;43621;51.798;21.588;2023-02-23T04:25:51;100320.40;;;-0.82;66.94
57791;BME280;43621;51.798;21.588;2023-02-23T04:29:53;100317.38;;;-0.79;66.82
57791;BME280;43621;51.798;21.588;2023-02-23T04:33:55;100316.56;;;-0.80;66.74
57791;BME280;43621;51.798;21.588;2023-02-23T04:37:57;100313.02;;;-0.77;66.66
57791;BME280;43621;51.798;21.588;2023-02-23T04:41:59;100314.28;;;-0.71;66.55
57791;BME280;43621;51.798;21.588;2023-02-23T04:46:01;100317.17;;;-0.66;66.40
57791;BME280;43621;51.798;21.588;2023-02-23T04:50:04;100317.38;;;-0.66;66.24
57791;BME280;43621;51.798;21.588;2023-02-23T04:54:06;100315.68;;;-0.67;66.25
57791;BME280;43621;51.798;21.588;2023-02-23T04:58:08;100312.55;;;-0.66;66.21
57791;BME280;43621;51.798;21.588;2023-02-23T05:02:14;100310.89;;;-0.63;66.14
57791;BME280;43621;51.798;21.588;2023-02-23T05:06:16;100309.50;;;-0.62;66.11
57791;BME280;43621;51.798;21.588;2023-02-23T05:10:18;100311.77;;;-0.68;66.06
57791;BME280;43621;51.798;21.588;2023-02-23T05:14:20;100306.60;;;-0.67;66.05
57791;BME280;43621;51.798;21.588;2023-02-23T05:18:22;100311.38;;;-0.71;66.06
57791;BME280;43621;51.798;21.588;2023-02-23T05:22:25;100311.30;;;-0.69;65.97
57791;BME280;43621;51.798;21.588;2023-02-23T05:26:27;100313.45;;;-0.63;65.89
57791;BME280;43621;51.798;21.588;2023-02-23T05:30:30;100312.94;;;-0.62;65.76
57791;BME280;43621;51.798;21.588;2023-02-23T05:34:32;100313.67;;;-0.64;65.71
57791;BME280;43621;51.798;21.588;2023-02-23T05:38:34;100318.09;;;-0.67;65.70
57791;BME280;43621;51.798;21.588;2023-02-23T05:42:36;100321.61;;;-0.70;65.63
57791;BME280;43621;51.798;21.588;2023-02-23T05:46:39;100326.59;;;-0.65;65.61
57791;BME280;43621;51.798;21.588;2023-02-23T05:50:41;100329.58;;;-0.58;65.61
57791;BME280;43621;51.798;21.588;2023-02-23T05:54:42;100330.53;;;-0.57;65.48
57791;BME280;43621;51.798;21.588;2023-02-23T05:58:48;100330.17;;;-0.48;65.43
57791;BME280;43621;51.798;21.588;2023-02-23T06:02:50;100332.27;;;-0.16;65.37
57791;BME280;43621;51.798;21.588;2023-02-23T06:06:53;100334.70;;;0.28;64.90
57791;BME280;43621;51.798;21.588;2023-02-23T06:10:55;100335.48;;;0.46;64.28
57791;BME280;43621;51.798;21.588;2023-02-23T06:14:57;100335.05;;;0.40;63.71
57791;BME280;43621;51.798;21.588;2023-02-23T06:18:59;100337.27;;;0.25;63.46
57791;BME280;43621;51.798;21.588;2023-02-23T06:23:01;100337.95;;;0.13;63.30
57791;BME280;43621;51.798;21.588;2023-02-23T06:27:02;100341.03;;;0.01;63.38
57791;BME280;43621;51.798;21.588;2023-02-23T06:31:04;100340.42;;;-0.02;63.36
57791;BME280;43621;51.798;21.588;2023-02-23T06:35:07;100340.33;;;0.01;63.56
57791;BME280;43621;51.798;21.588;2023-02-23T06:39:10;100341.39;;;0.13;63.39
57791;BME280;43621;51.798;21.588;2023-02-23T06:43:12;100342.23;;;0.37;63.18
57791;BME280;43621;51.798;21.588;2023-02-23T06:47:14;100340.17;;;0.60;62.36
57791;BME280;43621;51.798;21.588;2023-02-23T06:51:16;100334.58;;;1.03;62.04
57791;BME280;43621;51.798;21.588;2023-02-23T06:55:18;100330.52;;;2.47;60.84
57791;BME280;43621;51.798;21.588;2023-02-23T06:59:20;100329.15;;;3.76;58.17
57791;BME280;43621;51.798;21.588;2023-02-23T07:03:22;100324.73;;;5.17;55.39
57791;BME280;43621;51.798;21.588;2023-02-23T07:07:24;100321.27;;;6.69;53.19
57791;BME280;43621;51.798;21.588;2023-02-23T07:11:26;100314.60;;;7.25;51.52
57791;BME280;43621;51.798;21.588;2023-02-23T07:15:28;100319.68;;;6.91;50.92
57791;BME280;43621;51.798;21.588;2023-02-23T07:19:31;100313.70;;;7.09;50.53
57791;BME280;43621;51.798;21.588;2023-02-23T07:23:33;100311.31;;;8.18;49.24
57791;BME280;43621;51.798;21.588;2023-02-23T07:27:34;100306.45;;;9.48;48.87
57791;BME280;43621;51.798;21.588;2023-02-23T07:31:37;100304.55;;;11.07;45.29
57791;BME280;43621;51.798;21.588;2023-02-23T07:35:39;100305.15;;;12.56;42.94
57791;BME280;43621;51.798;21.588;2023-02-23T07:39:40;100302.71;;;13.13;41.74
57791;BME280;43621;51.798;21.588;2023-02-23T07:43:42;100300.79;;;13.09;39.92
57791;BME280;43621;51.798;21.588;2023-02-23T07:47:44;100298.41;;;13.76;37.51
57791;BME280;43621;51.798;21.588;2023-02-23T07:51:46;100294.05;;;14.76;36.35
57791;BME280;43621;51.798;21.588;2023-02-23T07:55:55;100292.78;;;15.57;36.46
57791;BME280;43621;51.798;21.588;2023-02-23T07:59:57;100288.35;;;15.27;35.94
57791;BME280;43621;51.798;21.588;2023-02-23T08:03:59;100288.98;;;13.96;35.57
57791;BME280;43621;51.798;21.588;2023-02-23T08:08:01;100286.61;;;12.58;36.84
57791;BME280;43621;51.798;21.588;2023-02-23T08:12:03;100289.91;;;12.38;35.77
57791;BME280;43621;51.798;21.588;2023-02-23T08:16:05;100284.79;;;11.53;36.07
57791;BME280;43621;51.798;21.588;2023-02-23T08:20:08;100286.98;;;11.12;37.02
57791;BME280;43621;51.798;21.588;2023-02-23T08:24:10;100288.41;;;10.53;37.27
57791;BME280;43621;51.798;21.588;2023-02-23T08:28:12;100291.21;;;9.73;38.22
57791;BME280;43621;51.798;21.588;2023-02-23T08:32:14;100282.11;;;10.86;38.99
57791;BME280;43621;51.798;21.588;2023-02-23T08:36:16;100268.01;;;15.15;35.65
57791;BME280;43621;51.798;21.588;2023-02-23T08:40:18;100259.13;;;18.86;32.09
57791;BME280;43621;51.798;21.588;2023-02-23T08:44:21;100255.18;;;21.61;29.66
57791;BME280;43621;51.798;21.588;2023-02-23T08:48:23;100254.88;;;23.73;27.84
57791;BME280;43621;51.798;21.588;2023-02-23T08:52:25;100250.42;;;25.35;23.65
57791;BME280;43621;51.798;21.588;2023-02-23T08:56:27;100246.95;;;26.33;22.56
57791;BME280;43621;51.798;21.588;2023-02-23T09:00:29;100243.51;;;27.67;22.73
57791;BME280;43621;51.798;21.588;2023-02-23T09:04:31;100240.16;;;29.28;22.16
57791;BME280;43621;51.798;21.588;2023-02-23T09:08:35;100235.09;;;30.13;21.41
57791;BME280;43621;51.798;21.588;2023-02-23T09:12:37;100238.30;;;30.20;19.54
57791;BME280;43621;51.798;21.588;2023-02-23T09:16:39;100240.39;;;28.72;17.52
57791;BME280;43621;51.798;21.588;2023-02-23T09:20:42;100241.21;;;28.23;18.27
57791;BME280;43621;51.798;21.588;2023-02-23T09:24:44;100240.86;;;28.83;19.53
57791;BME280;43621;51.798;21.588;2023-02-23T09:28:46;100232.62;;;28.50;17.24
57791;BME280;43621;51.798;21.588;2023-02-23T09:32:49;100236.40;;;26.53;17.46
57791;BME280;43621;51.798;21.588;2023-02-23T09:36:51;100231.05;;;24.81;19.29
57791;BME280;43621;51.798;21.588;2023-02-23T09:40:56;100234.80;;;22.15;21.03
57791;BME280;43621;51.798;21.588;2023-02-23T09:49:36;100228.80;;;18.71;24.04
57791;BME280;43621;51.798;21.588;2023-02-23T09:53:46;100221.23;;;21.33;24.15
57791;BME280;43621;51.798;21.588;2023-02-23T09:57:48;100213.95;;;24.00;22.42
57791;BME280;43621;51.798;21.588;2023-02-23T10:05:58;100210.52;;;26.43;19.78
57791;BME280;43621;51.798;21.588;2023-02-23T10:18:38;100197.30;;;27.31;17.53
57791;BME280;43621;51.798;21.588;2023-02-23T10:22:42;100192.91;;;27.03;17.24
57791;BME280;43621;51.798;21.588;2023-02-23T10:26:50;100192.77;;;26.56;17.28
57791;BME280;43621;51.798;21.588;2023-02-23T10:30:54;100191.30;;;26.18;17.62
57791;BME280;43621;51.798;21.588;2023-02-23T10:34:56;100187.17;;;26.03;18.45
57791;BME280;43621;51.798;21.588;2023-02-23T10:38:58;100172.83;;;26.30;18.97
57791;BME280;43621;51.798;21.588;2023-02-23T10:43:00;100164.74;;;26.21;18.33
57791;BME280;43621;51.798;21.588;2023-02-23T10:47:20;100165.64;;;26.02;18.45
57791;BME280;43621;51.798;21.588;2023-02-23T10:51:27;100157.10;;;24.46;17.83
57791;BME280;43621;51.798;21.588;2023-02-23T10:55:31;100147.01;;;22.56;19.26
57791;BME280;43621;51.798;21.588;2023-02-23T10:59:33;100144.34;;;21.34;20.50
57791;BME280;43621;51.798;21.588;2023-02-23T11:03:41;100139.40;;;21.26;21.25
57791;BME280;43621;51.798;21.588;2023-02-23T11:07:44;100131.79;;;22.07;21.70
57791;BME280;43621;51.798;21.588;2023-02-23T11:12:14;100124.95;;;22.05;21.02
57791;BME280;43621;51.798;21.588;2023-02-23T11:16:18;100119.61;;;21.15;21.29
57791;BME280;43621;51.798;21.588;2023-02-23T11:20:29;100116.50;;;20.38;22.42
57791;BME280;43621;51.798;21.588;2023-02-23T11:24:38;100107.98;;;19.67;22.96
57791;BME280;43621;51.798;21.588;2023-02-23T11:28:42;100104.47;;;18.46;23.85
57791;BME280;43621;51.798;21.588;2023-02-23T11:32:50;100103.21;;;17.20;24.70
57791;BME280;43621;51.798;21.588;2023-02-23T11:41:23;100090.61;;;14.05;27.70
57791;BME280;43621;51.798;21.588;2023-02-23T11:45:26;100087.34;;;12.95;29.63
57791;BME280;43621;51.798;21.588;2023-02-23T11:49:35;100082.36;;;11.97;31.33
57791;BME280;43621;51.798;21.588;2023-02-23T11:53:45;100077.48;;;11.19;32.72
57791;BME280;43621;51.798;21.588;2023-02-23T11:57:47;100073.20;;;10.61;33.43
57791;BME280;43621;51.798;21.588;2023-02-23T12:01:53;100072.52;;;10.39;33.70
57791;BME280;43621;51.798;21.588;2023-02-23T12:05:57;100063.88;;;10.31;34.04
57791;BME280;43621;51.798;21.588;2023-02-23T12:10:06;100060.68;;;10.09;35.09
57791;BME280;43621;51.798;21.588;2023-02-23T12:18:54;100045.45;;;9.56;36.13
57791;BME280;43621;51.798;21.588;2023-02-23T12:23:03;100038.79;;;9.49;36.57
57791;BME280;43621;51.798;21.588;2023-02-23T12:27:21;100034.60;;;9.41;37.13
57791;BME280;43621;51.798;21.588;2023-02-23T12:31:29;100033.81;;;9.23;37.74
57791;BME280;43621;51.798;21.588;2023-02-23T12:40:14;100024.80;;;8.73;38.83
57791;BME280;43621;51.798;21.588;2023-02-23T12:48:58;100006.07;;;8.53;39.17
57791;BME280;43621;51.798;21.588;2023-02-23T12:53:27;100001.65;;;8.56;39.48
57791;BME280;43621;51.798;21.588;2023-02-23T12:57:52;99998.04;;;8.41;40.44
57791;BME280;43621;51.798;21.588;2023-02-23T13:02:00;99991.59;;;8.24;40.50
57791;BME280;43621;51.798;21.588;2023-02-23T13:06:11;99983.17;;;8.23;40.82
57791;BME280;43621;51.798;21.588;2023-02-23T13:10:34;99979.97;;;8.07;41.31
57791;BME280;43621;51.798;21.588;2023-02-23T13:14:52;99968.46;;;7.90;41.66
57791;BME280;43621;51.798;21.588;2023-02-23T13:27:36;99957.52;;;7.86;42.29
57791;BME280;43621;51.798;21.588;2023-02-23T13:31:42;99946.36;;;7.62;42.79
57791;BME280;43621;51.798;21.588;2023-02-23T13:35:44;99938.81;;;7.37;43.17
57791;BME280;43621;51.798;21.588;2023-02-23T13:40:22;99928.85;;;7.11;43.94
57791;BME280;43621;51.798;21.588;2023-02-23T13:44:46;99926.66;;;6.90;44.51
57791;BME280;43621;51.798;21.588;2023-02-23T13:48:58;99927.33;;;6.77;45.07
57791;BME280;43621;51.798;21.588;2023-02-23T13:53:05;99924.42;;;6.74;45.18
57791;BME280;43621;51.798;21.588;2023-02-23T13:57:13;99924.30;;;6.71;45.26
57791;BME280;43621;51.798;21.588;2023-02-23T14:01:26;99913.45;;;6.66;45.63
57791;BME280;43621;51.798;21.588;2023-02-23T14:05:30;99908.29;;;6.65;45.50
57791;BME280;43621;51.798;21.588;2023-02-23T14:09:54;99904.20;;;6.64;45.96
57791;BME280;43621;51.798;21.588;2023-02-23T14:14:00;99900.27;;;6.56;46.12
57791;BME280;43621;51.798;21.588;2023-02-23T14:22:20;99891.36;;;6.39;46.59
57791;BME280;43621;51.798;21.588;2023-02-23T14:30:47;99879.02;;;6.14;47.12
57791;BME280;43621;51.798;21.588;2023-02-23T14:34:58;99877.02;;;6.08;47.47
57791;BME280;43621;51.798;21.588;2023-02-23T14:39:07;99871.56;;;6.05;47.89
57791;BME280;43621;51.798;21.588;2023-02-23T14:47:40;99863.36;;;5.96;48.19
57791;BME280;43621;51.798;21.588;2023-02-23T14:51:48;99858.98;;;5.90;48.49
57791;BME280;43621;51.798;21.588;2023-02-23T14:55:52;99852.86;;;5.88;48.55
57791;BME280;43621;51.798;21.588;2023-02-23T14:59:59;99850.87;;;5.82;48.80
57791;BME280;43621;51.798;21.588;2023-02-23T15:08:15;99839.76;;;5.71;49.10
57791;BME280;43621;51.798;21.588;2023-02-23T15:12:27;99837.15;;;5.69;49.34
57791;BME280;43621;51.798;21.588;2023-02-23T15:16:32;99832.12;;;5.62;49.55
57791;BME280;43621;51.798;21.588;2023-02-23T15:20:35;99823.23;;;5.53;49.34
57791;BME280;43621;51.798;21.588;2023-02-23T15:24:42;99818.61;;;5.43;49.79
57791;BME280;43621;51.798;21.588;2023-02-23T15:28:45;99817.11;;;5.30;49.90
57791;BME280;43621;51.798;21.588;2023-02-23T15:32:48;99809.11;;;5.16;50.61
57791;BME280;43621;51.798;21.588;2023-02-23T15:37:01;99807.03;;;4.97;51.17
57791;BME280;43621;51.798;21.588;2023-02-23T15:41:11;99800.59;;;4.78;51.33
57791;BME280;43621;51.798;21.588;2023-02-23T15:49:33;99794.02;;;4.49;51.66
57791;BME280;43621;51.798;21.588;2023-02-23T15:53:40;99793.37;;;4.36;51.96
57791;BME280;43621;51.798;21.588;2023-02-23T15:57:58;99788.46;;;4.24;51.92
57791;BME280;43621;51.798;21.588;2023-02-23T16:02:02;99780.84;;;4.11;52.58
57791;BME280;43621;51.798;21.588;2023-02-23T16:06:21;99779.74;;;4.00;52.77
57791;BME280;43621;51.798;21.588;2023-02-23T16:10:25;99778.39;;;3.89;52.90
57791;BME280;43621;51.798;21.588;2023-02-23T16:14:42;99773.98;;;3.80;53.18
57791;BME280;43621;51.798;21.588;2023-02-23T16:18:53;99771.09;;;3.72;53.17
57791;BME280;43621;51.798;21.588;2023-02-23T16:23:02;99767.93;;;3.65;53.23
57791;BME280;43621;51.798;21.588;2023-02-23T16:27:05;99769.65;;;3.60;53.32
57791;BME280;43621;51.798;21.588;2023-02-23T16:31:08;99770.10;;;3.55;53.80
57791;BME280;43621;51.798;21.588;2023-02-23T16:35:17;99772.93;;;3.51;53.77
57791;BME280;43621;51.798;21.588;2023-02-23T16:39:19;99767.06;;;3.46;54.03
57791;BME280;43621;51.798;21.588;2023-02-23T16:43:21;99763.71;;;3.42;54.22
57791;BME280;43621;51.798;21.588;2023-02-23T16:51:26;99759.92;;;3.34;54.47
57791;BME280;43621;51.798;21.588;2023-02-23T16:55:29;99755.52;;;3.30;55.28
57791;BME280;43621;51.798;21.588;2023-02-23T16:59:31;99752.23;;;3.25;55.52
57791;BME280;43621;51.798;21.588;2023-02-23T17:03:33;99747.59;;;3.22;55.34
57791;BME280;43621;51.798;21.588;2023-02-23T17:07:35;99746.89;;;3.20;55.45
57791;BME280;43621;51.798;21.588;2023-02-23T17:11:39;99738.86;;;3.18;55.65
57791;BME280;43621;51.798;21.588;2023-02-23T17:15:42;99738.95;;;3.17;55.73
57791;BME280;43621;51.798;21.588;2023-02-23T17:19:51;99737.20;;;3.15;55.67
57791;BME280;43621;51.798;21.588;2023-02-23T17:23:52;99743.44;;;3.14;55.68
57791;BME280;43621;51.798;21.588;2023-02-23T17:27:58;99741.53;;;3.15;55.64
57791;BME280;43621;51.798;21.588;2023-02-23T17:32:01;99735.02;;;3.14;55.81
57791;BME280;43621;51.798;21.588;2023-02-23T17:36:05;99731.92;;;3.11;55.82
57791;BME280;43621;51.798;21.588;2023-02-23T17:40:11;99718.72;;;3.05;55.84
57791;BME280;43621;51.798;21.588;2023-02-23T17:44:14;99711.25;;;2.98;56.05
57791;BME280;43621;51.798;21.588;2023-02-23T17:48:15;99703.34;;;2.92;55.91
57791;BME280;43621;51.798;21.588;2023-02-23T17:52:18;99702.10;;;2.87;55.98
57791;BME280;43621;51.798;21.588;2023-02-23T17:56:21;99700.18;;;2.85;55.86
57791;BME280;43621;51.798;21.588;2023-02-23T18:00:24;99696.66;;;2.81;56.06
57791;BME280;43621;51.798;21.588;2023-02-23T18:04:26;99695.45;;;2.78;56.09
57791;BME280;43621;51.798;21.588;2023-02-23T18:08:28;99689.02;;;2.76;56.10
57791;BME280;43621;51.798;21.588;2023-02-23T18:12:31;99683.96;;;2.72;56.23
57791;BME280;43621;51.798;21.588;2023-02-23T18:16:34;99679.48;;;2.66;56.41
57791;BME280;43621;51.798;21.588;2023-02-23T18:20:36;99672.54;;;2.61;56.64
57791;BME280;43621;51.798;21.588;2023-02-23T18:24:38;99670.84;;;2.55;56.89
57791;BME280;43621;51.798;21.588;2023-02-23T18:28:40;99659.23;;;2.51;56.90
57791;BME280;43621;51.798;21.588;2023-02-23T18:32:44;99653.59;;;2.56;57.01
57791;BME280;43621;51.798;21.588;2023-02-23T18:36:47;99649.44;;;2.64;57.31
57791;BME280;43621;51.798;21.588;2023-02-23T18:40:48;99644.17;;;2.71;57.66
57791;BME280;43621;51.798;21.588;2023-02-23T18:44:50;99638.06;;;2.75;58.04
57791;BME280;43621;51.798;21.588;2023-02-23T18:48:52;99631.90;;;2.77;57.94
57791;BME280;43621;51.798;21.588;2023-02-23T18:52:56;99628.07;;;2.78;58.00
57791;BME280;43621;51.798;21.588;2023-02-23T18:56:59;99625.33;;;2.75;57.95
57791;BME280;43621;51.798;21.588;2023-02-23T19:01:01;99622.45;;;2.74;57.89
57791;BME280;43621;51.798;21.588;2023-02-23T19:05:10;99611.54;;;2.72;57.99
57791;BME280;43621;51.798;21.588;2023-02-23T19:09:13;99602.41;;;2.72;57.86
57791;BME280;43621;51.798;21.588;2023-02-23T19:13:20;99596.42;;;2.72;57.84
57791;BME280;43621;51.798;21.588;2023-02-23T19:17:24;99592.36;;;2.70;57.95
57791;BME280;43621;51.798;21.588;2023-02-23T19:21:26;99585.80;;;2.68;57.99
57791;BME280;43621;51.798;21.588;2023-02-23T19:25:28;99581.88;;;2.65;58.00
57791;BME280;43621;51.798;21.588;2023-02-23T19:29:30;99573.27;;;2.65;58.11
57791;BME280;43621;51.798;21.588;2023-02-23T19:33:32;99561.00;;;2.68;58.27
57791;BME280;43621;51.798;21.588;2023-02-23T19:37:35;99555.31;;;2.70;58.41
57791;BME280;43621;51.798;21.588;2023-02-23T19:41:38;99548.01;;;2.71;58.46
57791;BME280;43621;51.798;21.588;2023-02-23T19:45:40;99543.59;;;2.70;58.58
57791;BME280;43621;51.798;21.588;2023-02-23T19:49:46;99541.44;;;2.69;58.80
57791;BME280;43621;51.798;21.588;2023-02-23T19:53:48;99535.56;;;2.67;58.76
57791;BME280;43621;51.798;21.588;2023-02-23T19:57:50;99530.55;;;2.62;58.77
57791;BME280;43621;51.798;21.588;2023-02-23T20:01:52;99525.34;;;2.56;59.05
57791;BME280;43621;51.798;21.588;2023-02-23T20:05:55;99517.87;;;2.52;59.13
57791;BME280;43621;51.798;21.588;2023-02-23T20:09:57;99510.11;;;2.50;59.20
57791;BME280;43621;51.798;21.588;2023-02-23T20:13:58;99503.94;;;2.50;59.79
57791;BME280;43621;51.798;21.588;2023-02-23T20:18:01;99502.30;;;2.51;59.72
57791;BME280;43621;51.798;21.588;2023-02-23T20:22:03;99495.09;;;2.53;59.96
57791;BME280;43621;51.798;21.588;2023-02-23T20:26:07;99488.09;;;2.57;60.24
57791;BME280;43621;51.798;21.588;2023-02-23T20:30:11;99482.56;;;2.57;60.10
57791;BME280;43621;51.798;21.588;2023-02-23T20:34:13;99473.88;;;2.56;60.40
57791;BME280;43621;51.798;21.588;2023-02-23T20:38:15;99467.86;;;2.53;60.33
57791;BME280;43621;51.798;21.588;2023-02-23T20:42:17;99459.96;;;2.53;60.47
57791;BME280;43621;51.798;21.588;2023-02-23T20:46:19;99456.21;;;2.55;60.69
57791;BME280;43621;51.798;21.588;2023-02-23T20:50:23;99451.70;;;2.58;60.71
57791;BME280;43621;51.798;21.588;2023-02-23T20:54:34;99447.02;;;2.64;60.69
57791;BME280;43621;51.798;21.588;2023-02-23T20:58:37;99438.99;;;2.70;60.84
57791;BME280;43621;51.798;21.588;2023-02-23T21:02:40;99430.43;;;2.79;61.11
57791;BME280;43621;51.798;21.588;2023-02-23T21:06:42;99426.85;;;2.89;61.18
57791;BME280;43621;51.798;21.588;2023-02-23T21:10:43;99423.23;;;2.99;61.28
57791;BME280;43621;51.798;21.588;2023-02-23T21:14:47;99422.24;;;3.06;61.33
57791;BME280;43621;51.798;21.588;2023-02-23T21:18:50;99417.72;;;3.11;61.28
57791;BME280;43621;51.798;21.588;2023-02-23T21:22:55;99413.71;;;3.24;61.26
57791;BME280;43621;51.798;21.588;2023-02-23T21:26:57;99404.41;;;3.36;61.52
57791;BME280;43621;51.798;21.588;2023-02-23T21:30:59;99398.63;;;3.44;61.32
57791;BME280;43621;51.798;21.588;2023-02-23T21:35:01;99392.39;;;3.49;61.43
57791;BME280;43621;51.798;21.588;2023-02-23T21:39:03;99384.34;;;3.54;61.53
57791;BME280;43621;51.798;21.588;2023-02-23T21:43:09;99383.70;;;3.58;61.46
57791;BME280;43621;51.798;21.588;2023-02-23T21:47:13;99374.20;;;3.63;61.41
57791;BME280;43621;51.798;21.588;2023-02-23T21:51:17;99368.56;;;3.74;61.51
57791;BME280;43621;51.798;21.588;2023-02-23T21:55:18;99364.02;;;3.83;61.53
57791;BME280;43621;51.798;21.588;2023-02-23T21:59:20;99363.42;;;3.92;61.40
57791;BME280;43621;51.798;21.588;2023-02-23T22:03:22;99356.74;;;3.94;61.36
57791;BME280;43621;51.798;21.588;2023-02-23T22:07:27;99352.48;;;3.93;61.36
57791;BME280;43621;51.798;21.588;2023-02-23T22:11:30;99354.80;;;3.92;61.39
57791;BME280;43621;51.798;21.588;2023-02-23T22:15:36;99350.44;;;3.95;61.49
57791;BME280;43621;51.798;21.588;2023-02-23T22:19:38;99343.88;;;3.97;61.44
57791;BME280;43621;51.798;21.588;2023-02-23T22:23:41;99338.21;;;4.01;61.44
57791;BME280;43621;51.798;21.588;2023-02-23T22:27:44;99330.45;;;4.08;61.38
57791;BME280;43621;51.798;21.588;2023-02-23T22:31:46;99324.13;;;4.12;61.45
57791;BME280;43621;51.798;21.588;2023-02-23T22:35:49;99319.67;;;4.11;61.67
57791;BME280;43621;51.798;21.588;2023-02-23T22:39:51;99313.36;;;4.12;61.69
57791;BME280;43621;51.798;21.588;2023-02-23T22:43:53;99306.20;;;4.13;61.60
57791;BME280;43621;51.798;21.588;2023-02-23T22:47:54;99301.07;;;4.13;61.67
57791;BME280;43621;51.798;21.588;2023-02-23T22:52:01;99294.88;;;4.12;61.67
57791;BME280;43621;51.798;21.588;2023-02-23T22:56:04;99286.95;;;4.14;61.67
57791;BME280;43621;51.798;21.588;2023-02-23T23:00:08;99281.21;;;4.20;61.82
57791;BME280;43621;51.798;21.588;2023-02-23T23:04:10;99273.14;;;4.21;61.71
57791;BME280;43621;51.798;21.588;2023-02-23T23:08:12;99269.13;;;4.19;61.69
57791;BME280;43621;51.798;21.588;2023-02-23T23:12:15;99261.69;;;4.17;61.90
57791;BME280;43621;51.798;21.588;2023-02-23T23:16:22;99256.06;;;4.14;61.86
57791;BME280;43621;51.798;21.588;2023-02-23T23:20:25;99247.67;;;4.13;61.81